Time;durP1;ratioP1;P1;durP2;ratioP2;P2;SDS_P1;SDS_P2;PMS_P1;PMS_P2;Temp;Humidity;BMP_temperature;BMP_pressure;BME280_temperature;BME280_humidity;BME280_pressure;Samples;Min_cycle;Max_cycle;Signal;HPM_P1;HPM_P2
2022/10/26 00:02:14;;;;;;;17.43;9.70;;;;;;;9.65;100.00;101223.19;7388129;19;20479;-49
2022/10/26 00:04:46;;;;;;;23.47;10.90;;;;;;;9.66;100.00;101220.69;7390626;19;20451;-47
2022/10/26 00:07:16;;;;;;;40.53;10.60;;;;;;;9.63;100.00;101219.66;7386574;19;20411;-48
2022/10/26 00:09:46;;;;;;;16.13;9.73;;;;;;;9.64;100.00;101221.41;7391323;19;20468;-46
2022/10/26 00:12:15;;;;;;;17.77;10.23;;;;;;;9.66;100.00;101217.22;7391732;19;20999;-48
2022/10/26 00:14:45;;;;;;;33.63;10.10;;;;;;;9.61;100.00;101224.72;7390954;19;20388;-47
2022/10/26 00:17:17;;;;;;;19.87;10.30;;;;;;;9.59;100.00;101210.88;7391037;19;20455;-49
2022/10/26 00:19:49;;;;;;;19.10;10.07;;;;;;;9.57;100.00;101218.50;7389929;19;20917;-48
2022/10/26 00:22:19;;;;;;;21.00;9.80;;;;;;;9.53;100.00;101223.44;7388769;19;20539;-46
2022/10/26 00:24:48;;;;;;;23.77;9.97;;;;;;;9.50;100.00;101229.28;7390070;19;21050;-45
2022/10/26 00:27:18;;;;;;;16.97;10.70;;;;;;;9.50;100.00;101230.97;7389568;19;20399;-49
2022/10/26 00:29:47;;;;;;;20.80;9.63;;;;;;;9.50;100.00;101219.00;7390212;19;20427;-51
2022/10/26 00:32:17;;;;;;;28.77;10.50;;;;;;;9.53;100.00;101228.56;7389075;19;20776;-50
2022/10/26 00:34:49;;;;;;;22.53;10.20;;;;;;;9.55;100.00;101221.81;7389613;19;20404;-46
2022/10/26 00:37:18;;;;;;;23.33;11.00;;;;;;;9.56;100.00;101224.47;7389188;19;20411;-50
2022/10/26 00:39:48;;;;;;;16.37;10.37;;;;;;;9.54;100.00;101220.91;7389667;19;20388;-49
2022/10/26 00:42:20;;;;;;;20.30;10.50;;;;;;;9.54;100.00;101220.91;7387835;19;20418;-49
2022/10/26 00:45:01;;;;;;;23.33;11.97;;;;;;;9.54;100.00;101231.22;7390427;19;20423;-45
2022/10/26 00:47:36;;;;;;;21.40;11.30;;;;;;;9.71;100.00;101223.50;7389186;19;20431;-46
2022/10/26 00:50:10;;;;;;;20.70;10.97;;;;;;;9.83;100.00;101226.72;7388426;19;20399;-49
2022/10/26 00:52:40;;;;;;;20.83;10.53;;;;;;;9.68;100.00;101229.38;7388841;19;20450;-50
2022/10/26 00:55:10;;;;;;;19.70;10.33;;;;;;;9.64;100.00;101224.84;7387307;19;20416;-48
2022/10/26 00:57:40;;;;;;;27.07;10.63;;;;;;;9.59;100.00;101224.63;7390265;19;20399;-51
2022/10/26 01:00:11;;;;;;;19.30;10.80;;;;;;;9.52;100.00;101217.38;7386983;19;20622;-54
2022/10/26 01:02:41;;;;;;;22.60;10.70;;;;;;;9.44;100.00;101216.94;7386186;19;20451;-52
2022/10/26 01:05:13;;;;;;;18.17;10.33;;;;;;;9.39;100.00;101220.09;7391193;19;20392;-53
2022/10/26 01:07:43;;;;;;;24.10;10.20;;;;;;;9.42;100.00;101225.41;7390554;19;20708;-53
2022/10/26 01:10:14;;;;;;;21.30;9.60;;;;;;;9.53;100.00;101219.13;7387417;19;20774;-52
2022/10/26 01:12:43;;;;;;;20.57;9.80;;;;;;;9.44;100.00;101219.53;7390319;19;20450;-49
2022/10/26 01:15:13;;;;;;;15.80;9.57;;;;;;;9.28;100.00;101230.69;7385484;19;20838;-51
2022/10/26 01:17:57;;;;;;;21.77;9.97;;;;;;;9.21;100.00;101232.84;7389999;19;20388;-51
2022/10/26 01:21:10;;;;;;;22.60;10.90;;;;;;;9.24;100.00;101233.03;7387720;19;20439;-52
2022/10/26 01:23:52;;;;;;;20.20;10.13;;;;;;;9.03;100.00;101237.06;7386289;19;20408;-49
2022/10/26 01:26:37;;;;;;;23.90;9.70;;;;;;;9.09;100.00;101235.63;7387870;19;20391;-49
2022/10/26 01:29:38;;;;;;;24.53;9.93;;;;;;;9.01;100.00;101233.53;7389660;19;20372;-50
2022/10/26 01:32:13;;;;;;;19.47;9.20;;;;;;;9.05;100.00;101234.56;7386465;19;20423;-46
2022/10/26 01:34:46;;;;;;;19.57;9.80;;;;;;;9.08;100.00;101231.28;7393192;19;20414;-47
2022/10/26 01:37:19;;;;;;;17.77;9.43;;;;;;;9.06;100.00;101236.34;7387144;19;20437;-49
2022/10/26 01:39:51;;;;;;;18.47;10.40;;;;;;;9.04;100.00;101237.97;7389593;19;20380;-48
2022/10/26 01:42:21;;;;;;;24.13;10.77;;;;;;;8.86;100.00;101228.41;7388333;19;20948;-45
2022/10/26 01:44:55;;;;;;;20.20;9.83;;;;;;;8.91;100.00;101226.06;7387465;19;20411;-51
2022/10/26 01:47:27;;;;;;;16.83;9.60;;;;;;;8.72;100.00;101227.59;7388794;19;20450;-51
2022/10/26 01:49:58;;;;;;;19.90;10.23;;;;;;;8.70;100.00;101231.78;7387011;19;20539;-51
2022/10/26 01:52:28;;;;;;;17.17;10.23;;;;;;;8.92;100.00;101227.84;7388080;19;20782;-49
2022/10/26 01:55:02;;;;;;;16.40;9.40;;;;;;;8.86;100.00;101238.69;7386377;19;20388;-52
2022/10/26 01:57:34;;;;;;;19.43;10.30;;;;;;;8.94;100.00;101236.56;7388717;19;20394;-51
2022/10/26 02:00:09;;;;;;;20.37;10.67;;;;;;;8.78;100.00;101240.81;7382852;19;20430;-49
2022/10/26 02:02:59;;;;;;;15.80;9.60;;;;;;;8.66;100.00;101241.81;7391336;19;20453;-47
2022/10/26 02:05:41;;;;;;;16.63;10.10;;;;;;;8.53;100.00;101235.97;7385938;19;20430;-49
2022/10/26 02:08:21;;;;;;;18.87;10.47;;;;;;;8.63;100.00;101232.25;7388681;19;20955;-51
2022/10/26 02:11:01;;;;;;;23.30;11.10;;;;;;;8.73;100.00;101233.66;7386780;19;20431;-47
2022/10/26 02:13:35;;;;;;;18.30;9.90;;;;;;;8.55;100.00;101230.94;7387310;19;20423;-48
2022/10/26 02:16:10;;;;;;;19.27;9.67;;;;;;;8.70;100.00;101230.91;7385528;19;20438;-51
2022/10/26 02:18:45;;;;;;;18.73;10.87;;;;;;;8.55;100.00;101236.06;7388160;19;20423;-49
2022/10/26 02:21:17;;;;;;;26.20;11.50;;;;;;;8.35;100.00;101241.78;7384998;19;20418;-51
2022/10/26 02:23:49;;;;;;;20.33;10.60;;;;;;;8.43;100.00;101231.06;7390057;19;20803;-50
2022/10/26 02:26:20;;;;;;;19.63;9.90;;;;;;;8.52;100.00;101236.78;7392450;19;20802;-47
2022/10/26 02:28:52;;;;;;;20.30;10.43;;;;;;;8.36;100.00;101246.13;7395751;19;20391;-49
2022/10/26 02:31:22;;;;;;;15.57;9.60;;;;;;;8.28;100.00;101231.03;7392818;19;20414;-48
2022/10/26 02:33:55;;;;;;;18.83;10.50;;;;;;;8.15;100.00;101230.31;7394019;19;20419;-49
2022/10/26 02:36:28;;;;;;;16.27;9.50;;;;;;;8.09;100.00;101218.00;7392617;19;20449;-51
2022/10/26 02:38:58;;;;;;;19.70;9.90;;;;;;;8.29;100.00;101210.56;7395532;19;20399;-50
2022/10/26 02:41:30;;;;;;;19.40;11.30;;;;;;;8.37;100.00;101211.03;7390591;19;20410;-48
2022/10/26 02:44:04;;;;;;;24.97;10.93;;;;;;;8.32;100.00;101204.72;7392898;19;20423;-48
2022/10/26 02:46:35;;;;;;;21.10;11.13;;;;;;;8.26;100.00;101201.78;7391865;19;20817;-49
2022/10/26 02:49:07;;;;;;;21.57;10.67;;;;;;;8.28;100.00;101210.47;7394866;19;20387;-49
2022/10/26 02:51:41;;;;;;;20.50;10.87;;;;;;;8.10;100.00;101203.44;7393525;19;20392;-49
2022/10/26 02:54:16;;;;;;;25.40;11.03;;;;;;;8.09;100.00;101196.53;7392445;19;20765;-49
2022/10/26 02:56:48;;;;;;;26.23;11.47;;;;;;;8.04;100.00;101192.81;7392013;19;20441;-48
2022/10/26 02:59:20;;;;;;;18.97;10.37;;;;;;;8.01;100.00;101196.13;7395152;19;20392;-49
2022/10/26 03:01:51;;;;;;;23.93;11.37;;;;;;;8.04;100.00;101191.13;7390878;19;20415;-50
2022/10/26 03:04:30;;;;;;;19.67;10.47;;;;;;;8.34;100.00;101185.13;7392076;19;20450;-50
2022/10/26 03:06:59;;;;;;;23.17;11.40;;;;;;;8.55;100.00;101179.50;7389886;19;20407;-53
2022/10/26 03:09:29;;;;;;;21.83;10.23;;;;;;;8.56;100.00;101183.84;7394378;19;20435;-48
2022/10/26 03:11:59;;;;;;;21.43;10.80;;;;;;;8.45;100.00;101172.88;7391130;19;20527;-47
2022/10/26 03:14:28;;;;;;;25.73;12.67;;;;;;;8.28;100.00;101169.34;7392089;19;20844;-56
2022/10/26 03:16:58;;;;;;;22.63;10.97;;;;;;;8.09;100.00;101168.28;7390797;19;20414;-53
2022/10/26 03:19:29;;;;;;;20.20;10.63;;;;;;;8.32;100.00;101171.31;7396822;19;20734;-53
2022/10/26 03:21:59;;;;;;;28.47;10.97;;;;;;;8.45;100.00;101172.88;7389415;19;20967;-51
2022/10/26 03:24:28;;;;;;;23.43;11.53;;;;;;;8.37;100.00;101177.59;7391602;19;20462;-51
2022/10/26 03:26:58;;;;;;;19.23;11.47;;;;;;;8.52;100.00;101167.34;7391559;19;20415;-47
2022/10/26 03:29:31;;;;;;;27.37;12.00;;;;;;;8.51;100.00;101168.09;7394058;19;20466;-48
2022/10/26 03:32:00;;;;;;;22.03;11.90;;;;;;;8.47;100.00;101161.00;7390447;19;20778;-53
2022/10/26 03:34:32;;;;;;;23.50;12.13;;;;;;;8.35;100.00;101171.47;7389940;19;20427;-49
2022/10/26 03:37:01;;;;;;;22.87;11.93;;;;;;;8.60;100.00;101167.75;7395057;19;20474;-49
2022/10/26 03:39:31;;;;;;;24.53;12.50;;;;;;;8.83;100.00;101165.59;7393414;19;20388;-48
2022/10/26 03:42:01;;;;;;;23.73;10.67;;;;;;;8.64;100.00;101169.69;7389147;19;20399;-48
2022/10/26 03:44:30;;;;;;;26.13;11.50;;;;;;;8.57;100.00;101172.75;7391212;19;20435;-49
2022/10/26 03:46:59;;;;;;;23.73;12.17;;;;;;;8.39;100.00;101176.00;7390569;19;20442;-49
2022/10/26 03:49:31;;;;;;;25.37;12.10;;;;;;;8.64;100.00;101164.56;7393363;19;20379;-50
2022/10/26 03:52:01;;;;;;;20.53;10.93;;;;;;;8.40;100.00;101167.47;7389964;19;20765;-50
2022/10/26 03:54:30;;;;;;;26.20;13.57;;;;;;;8.75;100.00;101175.44;7390621;19;20812;-47
2022/10/26 03:56:59;;;;;;;49.47;29.57;;;;;;;8.97;100.00;101171.50;7389671;19;20423;-46
2022/10/26 03:59:29;;;;;;;47.73;26.23;;;;;;;9.18;100.00;101182.09;7392889;19;20376;-49
2022/10/26 04:01:58;;;;;;;34.30;18.20;;;;;;;9.06;100.00;101177.16;7388909;19;20975;-48
2022/10/26 04:04:28;;;;;;;31.80;17.00;;;;;;;9.00;100.00;101188.00;7390911;19;20411;-47
2022/10/26 04:07:00;;;;;;;29.23;16.30;;;;;;;9.10;100.00;101197.13;7386455;19;20438;-46
2022/10/26 04:09:29;;;;;;;26.20;13.50;;;;;;;9.26;100.00;101203.97;7392996;19;20388;-45
2022/10/26 04:11:59;;;;;;;19.23;10.40;;;;;;;9.05;100.00;101217.47;7392367;19;20431;-47
2022/10/26 04:14:28;;;;;;;22.53;10.50;;;;;;;9.25;100.00;101217.66;7390081;19;20419;-47
2022/10/26 04:16:57;;;;;;;22.77;10.43;;;;;;;9.23;100.00;101233.84;7388565;19;20422;-46
2022/10/26 04:19:27;;;;;;;19.77;10.77;;;;;;;9.03;100.00;101249.06;7391791;19;20463;-47
2022/10/26 04:21:56;;;;;;;17.80;9.70;;;;;;;9.20;100.00;101252.56;7388397;19;20808;-47
2022/10/26 04:24:28;;;;;;;19.47;9.77;;;;;;;9.07;100.00;101268.13;7390200;19;20424;-46
2022/10/26 04:26:58;;;;;;;15.80;9.60;;;;;;;9.10;100.00;101268.28;7388850;19;20411;-48
2022/10/26 04:29:27;;;;;;;17.50;9.33;;;;;;;9.22;100.00;101266.41;7391420;19;20749;-48
2022/10/26 04:31:57;;;;;;;20.43;9.60;;;;;;;9.42;100.00;101275.22;7388097;19;20410;-47
2022/10/26 04:34:26;;;;;;;17.63;9.70;;;;;;;9.28;100.00;101274.47;7389586;19;20948;-47
2022/10/26 04:36:56;;;;;;;17.57;10.20;;;;;;;8.95;100.00;101269.22;7388286;19;20462;-47
2022/10/26 04:39:28;;;;;;;21.40;9.83;;;;;;;9.02;100.00;101276.47;7391288;19;20391;-48
2022/10/26 04:41:58;;;;;;;16.63;9.50;;;;;;;9.00;100.00;101272.03;7387719;19;20453;-46
2022/10/26 04:44:27;;;;;;;21.10;10.67;;;;;;;8.94;100.00;101279.41;7389625;19;20924;-48
2022/10/26 04:46:56;;;;;;;19.80;9.80;;;;;;;8.75;100.00;101276.69;7384394;19;20411;-46
2022/10/26 04:49:26;;;;;;;15.83;9.20;;;;;;;8.87;100.00;101275.63;7390858;19;20383;-46
2022/10/26 04:51:55;;;;;;;19.60;10.37;;;;;;;8.85;100.00;101272.06;7387863;19;20766;-46
2022/10/26 04:54:25;;;;;;;19.03;10.17;;;;;;;9.16;100.00;101273.78;7388804;19;20446;-46
2022/10/26 04:56:56;;;;;;;21.23;10.33;;;;;;;9.18;100.00;101273.06;7387501;19;20427;-48
2022/10/26 04:59:26;;;;;;;16.90;10.20;;;;;;;9.02;100.00;101276.47;7390955;19;20400;-48
2022/10/26 05:01:55;;;;;;;18.70;9.43;;;;;;;9.15;100.00;101274.59;7386138;19;20410;-46
2022/10/26 05:04:25;;;;;;;17.20;9.10;;;;;;;9.18;100.00;101267.91;7389357;19;20462;-47
2022/10/26 05:06:55;;;;;;;18.37;9.53;;;;;;;8.71;100.00;101274.72;7386965;19;20438;-45
2022/10/26 05:09:24;;;;;;;19.17;9.47;;;;;;;8.27;100.00;101270.41;7390391;19;20383;-49
2022/10/26 05:11:56;;;;;;;23.03;10.43;;;;;;;8.06;100.00;101270.91;7386851;19;20430;-46
2022/10/26 05:14:25;;;;;;;19.60;10.53;;;;;;;7.94;100.00;101271.94;7388690;19;20424;-50
2022/10/26 05:16:56;;;;;;;18.73;10.80;;;;;;;7.79;100.00;101266.75;7382394;19;20442;-47
2022/10/26 05:19:26;;;;;;;25.63;11.13;;;;;;;7.78;100.00;101258.94;7392420;19;20414;-48
2022/10/26 05:21:55;;;;;;;25.80;11.30;;;;;;;7.74;100.00;101262.13;7386092;19;20438;-47
2022/10/26 05:24:24;;;;;;;20.03;11.03;;;;;;;7.67;100.00;101261.75;7388786;19;20760;-46
2022/10/26 05:26:56;;;;;;;25.87;11.07;;;;;;;7.63;100.00;101256.34;7386340;19;20427;-46
2022/10/26 05:29:26;;;;;;;17.07;10.43;;;;;;;7.60;100.00;101256.13;7394321;19;20956;-46
2022/10/26 05:31:55;;;;;;;22.23;11.50;;;;;;;7.56;100.00;101255.06;7386253;19;20955;-48
2022/10/26 05:34:25;;;;;;;22.97;11.70;;;;;;;7.57;100.00;101249.13;7387848;19;20443;-46
2022/10/26 05:36:55;;;;;;;25.10;12.10;;;;;;;7.51;100.00;101244.50;7386886;19;20449;-45
2022/10/26 05:39:25;;;;;;;21.13;11.97;;;;;;;7.56;100.00;101240.56;7389633;19;20382;-46
2022/10/26 05:41:57;;;;;;;24.93;12.03;;;;;;;7.50;100.00;101236.69;7383255;19;20423;-47
2022/10/26 05:44:26;;;;;;;24.90;11.40;;;;;;;7.48;100.00;101234.03;7392148;19;20431;-48
2022/10/26 05:46:56;;;;;;;22.37;12.90;;;;;;;7.46;100.00;101232.16;7384285;19;20423;-50
2022/10/26 05:49:25;;;;;;;26.90;13.90;;;;;;;7.42;100.00;101224.28;7389180;19;20448;-47
2022/10/26 05:51:54;;;;;;;26.07;13.23;;;;;;;7.43;100.00;101222.59;7386152;19;20415;-46
2022/10/26 05:54:24;;;;;;;24.53;11.70;;;;;;;7.39;100.00;101221.50;7386874;19;21269;-50
2022/10/26 05:56:57;;;;;;;20.60;12.40;;;;;;;7.33;100.00;101208.28;7386337;19;20411;-50
2022/10/26 05:59:27;;;;;;;23.70;12.70;;;;;;;7.30;100.00;101200.41;7394497;19;20375;-50
2022/10/26 06:02:05;;;;;;;24.43;12.63;;;;;;;7.36;100.00;101205.94;7391872;19;20438;-48
2022/10/26 06:04:39;;;;;;;25.87;12.80;;;;;;;7.34;100.00;101191.22;7400548;19;20776;-48
2022/10/26 06:07:13;;;;;;;23.30;12.23;;;;;;;7.32;100.00;101196.25;7391954;19;20447;-48
2022/10/26 06:09:44;;;;;;;33.37;13.13;;;;;;;7.30;100.00;101196.16;7396355;19;20388;-48
2022/10/26 06:12:17;;;;;;;26.70;14.90;;;;;;;7.28;100.00;101189.19;7395454;19;20928;-51
2022/10/26 06:14:49;;;;;;;22.93;13.40;;;;;;;7.28;100.00;101186.63;7395986;19;20387;-50
2022/10/26 06:17:27;;;;;;;27.90;14.30;;;;;;;7.23;100.00;101183.72;7395301;19;20419;-46
2022/10/26 06:20:09;;;;;;;33.10;13.43;;;;;;;7.25;100.00;101178.69;7393395;19;20939;-49
2022/10/26 06:22:48;;;;;;;35.53;13.10;;;;;;;7.22;100.00;101178.53;7395090;19;20442;-49
2022/10/26 06:25:27;;;;;;;29.67;15.00;;;;;;;7.23;100.00;101170.91;7392862;19;20941;-46
2022/10/26 06:28:06;;;;;;;29.87;14.67;;;;;;;7.23;100.00;101175.16;7395526;19;20467;-47
2022/10/26 06:30:36;;;;;;;27.67;14.80;;;;;;;7.25;100.00;101169.34;7392932;19;20410;-46
2022/10/26 06:33:05;;;;;;;31.87;14.23;;;;;;;7.23;100.00;101170.91;7393697;19;20451;-48
2022/10/26 06:36:04;;;;;;;35.30;14.10;;;;;;;7.26;100.00;101175.34;7392816;19;20769;-47
2022/10/26 06:38:36;;;;;;;31.13;15.20;;;;;;;7.30;100.00;101169.63;7395946;19;20384;-48
2022/10/26 06:41:06;;;;;;;27.47;14.20;;;;;;;7.27;100.00;101174.53;7390130;19;20439;-48
2022/10/26 06:43:39;;;;;;;33.00;15.13;;;;;;;7.29;100.00;101170.41;7393362;19;20989;-46
2022/10/26 06:46:18;;;;;;;30.17;15.50;;;;;;;7.33;100.00;101169.78;7389844;19;20427;-46
2022/10/26 06:48:53;;;;;;;29.33;14.80;;;;;;;7.37;100.00;101169.19;7394789;19;20392;-48
2022/10/26 06:51:23;;;;;;;28.80;14.63;;;;;;;7.42;100.00;101172.03;7391795;19;20480;-46
2022/10/26 06:53:56;;;;;;;30.07;15.03;;;;;;;7.48;100.00;101172.41;7392380;19;20432;-46
2022/10/26 06:56:26;;;;;;;42.20;16.97;;;;;;;7.46;100.00;101173.09;7391211;19;20435;-50
2022/10/26 06:59:02;;;;;;;34.13;15.47;;;;;;;7.48;100.00;101166.41;7394128;19;20746;-46
2022/10/26 07:01:35;;;;;;;28.80;15.23;;;;;;;7.52;100.00;101176.06;7389718;19;20415;-48
2022/10/26 07:04:04;;;;;;;26.73;14.97;;;;;;;7.55;100.00;101168.53;7392249;19;20427;-48
2022/10/26 07:06:34;;;;;;;33.53;15.70;;;;;;;7.57;100.00;101175.56;7390471;19;20439;-47
2022/10/26 07:09:07;;;;;;;30.87;15.70;;;;;;;7.58;100.00;101176.41;7392916;19;20960;-50
2022/10/26 07:11:37;;;;;;;35.27;16.07;;;;;;;7.61;100.00;101184.34;7385607;19;20929;-49
2022/10/26 07:14:08;;;;;;;32.70;16.00;;;;;;;7.60;100.00;101180.00;7391900;19;20427;-46
2022/10/26 07:16:38;;;;;;;29.80;15.03;;;;;;;7.63;100.00;101187.88;7391035;19;20407;-48
2022/10/26 07:19:07;;;;;;;34.80;15.40;;;;;;;7.80;100.00;101186.31;7394279;19;20412;-47
2022/10/26 07:21:37;;;;;;;28.17;15.87;;;;;;;7.86;100.00;101184.91;7388464;19;20446;-47
2022/10/26 07:24:07;;;;;;;36.03;17.93;;;;;;;7.88;100.00;101188.44;7391673;19;20419;-47
2022/10/26 07:26:36;;;;;;;34.90;15.83;;;;;;;8.16;100.00;101201.25;7389794;19;20455;-46
2022/10/26 07:29:08;;;;;;;37.03;17.60;;;;;;;8.11;100.00;101184.69;7393082;19;20412;-46
2022/10/26 07:31:38;;;;;;;35.50;16.87;;;;;;;8.19;100.00;101186.00;7392506;19;20435;-47
2022/10/26 07:34:08;;;;;;;38.90;16.50;;;;;;;8.41;100.00;101194.97;7394514;19;20812;-48
2022/10/26 07:36:40;;;;;;;36.60;16.43;;;;;;;8.47;100.00;101185.03;7390757;19;20427;-50
2022/10/26 07:39:10;;;;;;;37.57;18.17;;;;;;;8.43;100.00;101190.81;7397220;19;20391;-46
2022/10/26 07:41:39;;;;;;;31.43;16.33;;;;;;;8.46;100.00;101195.25;7384807;19;20445;-48
2022/10/26 07:44:11;;;;;;;31.47;18.40;;;;;;;8.54;100.00;101190.56;7392220;19;20450;-47
2022/10/26 07:46:41;;;;;;;30.80;16.03;;;;;;;8.54;100.00;101193.13;7391288;19;20451;-51
2022/10/26 07:49:10;;;;;;;35.90;16.53;;;;;;;8.67;100.00;101194.72;7393197;19;20384;-46
2022/10/26 07:51:39;;;;;;;32.27;17.00;;;;;;;8.70;100.00;101198.34;7389722;19;20415;-50
2022/10/26 07:54:09;;;;;;;33.70;17.30;;;;;;;8.68;100.00;101199.97;7390650;19;20483;-48
2022/10/26 07:56:38;;;;;;;29.77;16.10;;;;;;;8.77;100.00;101203.03;7389158;19;20427;-46
2022/10/26 07:59:13;;;;;;;27.47;15.37;;;;;;;8.92;100.00;101196.97;7392362;19;20392;-49
2022/10/26 08:01:42;;;;;;;32.93;17.90;;;;;;;9.05;100.00;101202.00;7389302;19;20437;-48
2022/10/26 08:04:12;;;;;;;28.10;15.50;;;;;;;9.22;100.00;101202.03;7394022;19;20439;-47
2022/10/26 08:06:41;;;;;;;31.47;15.73;;;;;;;9.19;100.00;101197.59;7387993;19;20965;-48
2022/10/26 08:09:11;;;;;;;34.20;16.27;;;;;;;9.17;100.00;101203.47;7392145;19;20399;-47
2022/10/26 08:11:40;;;;;;;29.60;14.73;;;;;;;9.24;100.00;101205.59;7388429;19;20419;-48
2022/10/26 08:14:12;;;;;;;28.23;15.27;;;;;;;9.28;100.00;101212.66;7394838;19;20439;-47
2022/10/26 08:16:42;;;;;;;28.50;15.47;;;;;;;9.36;100.00;101219.91;7389007;19;20442;-46
2022/10/26 08:19:11;;;;;;;28.50;15.40;;;;;;;9.47;100.00;101216.25;7392027;19;20415;-46
2022/10/26 08:21:41;;;;;;;29.80;14.87;;;;;;;10.09;100.00;101227.19;7388138;19;20470;-48
2022/10/26 08:24:10;;;;;;;29.70;15.90;;;;;;;10.45;100.00;101229.00;7394949;19;20446;-49
2022/10/26 08:26:40;;;;;;;30.00;17.67;;;;;;;10.55;100.00;101238.06;7389310;19;20795;-48
2022/10/26 08:29:12;;;;;;;28.87;14.53;;;;;;;10.54;100.00;101246.63;7392433;19;20405;-48
2022/10/26 08:31:41;;;;;;;31.13;17.20;;;;;;;10.58;100.00;101245.97;7388324;19;20422;-47
2022/10/26 08:34:11;;;;;;;28.83;14.13;;;;;;;10.73;100.00;101257.88;7390241;19;20419;-46
2022/10/26 08:36:40;;;;;;;27.47;13.97;;;;;;;11.05;100.00;101261.13;7388909;19;20431;-46
2022/10/26 08:39:10;;;;;;;53.80;26.53;;;;;;;10.87;100.00;101267.16;7395688;19;20408;-47
2022/10/26 08:41:43;;;;;;;22.50;12.80;;;;;;;11.27;100.00;101280.22;7382451;19;20428;-51
2022/10/26 08:44:24;;;;;;;22.50;13.10;;;;;;;11.25;100.00;101280.16;7389682;19;20460;-49
2022/10/26 08:46:56;;;;;;;28.50;12.57;;;;;;;11.09;100.00;101294.03;7387594;19;20439;-54
2022/10/26 08:49:28;;;;;;;31.77;15.27;;;;;;;11.24;100.00;101293.88;7390521;19;20389;-52
2022/10/26 08:52:01;;;;;;;28.70;13.00;;;;;;;10.88;100.00;101301.63;7387388;19;20433;-52
2022/10/26 08:54:37;;;;;;;22.00;11.90;;;;;;;10.88;100.00;101305.06;7388725;19;20413;-48
2022/10/26 08:57:16;;;;;;;32.63;16.87;;;;;;;10.92;100.00;101304.41;7387679;19;20444;-48
2022/10/26 08:59:52;;;;;;;20.00;11.27;;;;;;;10.96;100.00;101312.31;7390295;19;20732;-52
2022/10/26 09:02:23;;;;;;;21.40;11.20;;;;;;;11.11;100.00;101318.22;7384959;19;20411;-51
2022/10/26 09:04:53;;;;;;;22.37;13.17;;;;;;;11.21;100.00;101320.44;7387635;19;20383;-49
2022/10/26 09:07:44;;;;;;;23.73;12.03;;;;;;;11.28;100.00;101311.28;7389453;19;20411;-50
2022/10/26 09:10:24;;;;;;;17.10;10.37;;;;;;;11.41;100.00;101311.84;7387590;19;20404;-52
2022/10/26 09:12:57;;;;;;;21.90;9.23;;;;;;;11.39;100.00;101306.63;7388347;19;20450;-50
2022/10/26 09:15:36;;;;;;;29.43;12.70;;;;;;;11.48;100.00;101303.56;7386789;19;20411;-47
2022/10/26 09:18:15;;;;;;;22.20;11.23;;;;;;;11.69;100.00;101303.69;7390225;19;20408;-47
2022/10/26 09:20:52;;;;;;;20.03;10.07;;;;;;;11.90;100.00;101302.91;7384359;19;20522;-51
2022/10/26 09:23:33;;;;;;;17.57;8.57;;;;;;;11.86;100.00;101301.00;7393460;19;20424;-46
2022/10/26 09:26:04;;;;;;;19.93;9.63;;;;;;;11.97;100.00;101299.78;7386686;19;20422;-46
2022/10/26 09:28:37;;;;;;;19.90;9.50;;;;;;;12.04;100.00;101297.50;7388071;19;20745;-53
2022/10/26 09:31:15;;;;;;;20.43;10.90;;;;;;;12.16;100.00;101300.63;7386458;19;20797;-47
2022/10/26 09:33:45;;;;;;;13.80;8.57;;;;;;;12.19;100.00;101295.59;7391323;19;20454;-51
2022/10/26 09:36:16;;;;;;;16.17;7.90;;;;;;;12.28;100.00;101306.34;7394931;19;20438;-46
2022/10/26 09:38:49;;;;;;;13.80;8.30;;;;;;;12.38;100.00;101298.97;7396148;19;20358;-49
2022/10/26 09:41:26;;;;;;;17.63;8.63;;;;;;;12.49;100.00;101302.91;7391592;19;20424;-52
2022/10/26 09:44:04;;;;;;;15.50;7.50;;;;;;;12.59;100.00;101304.19;7393105;19;20442;-48
2022/10/26 09:46:55;;;;;;;16.90;7.70;;;;;;;12.66;100.00;101313.97;7392495;19;20417;-46
2022/10/26 09:49:30;;;;;;;10.47;6.20;;;;;;;12.74;100.00;101316.88;7392683;19;20422;-51
2022/10/26 09:51:59;;;;;;;11.10;6.30;;;;;;;12.70;100.00;101309.81;7395711;19;20446;-46
2022/10/26 09:54:29;;;;;;;10.50;6.23;;;;;;;12.70;100.00;101307.22;7392819;19;20424;-46
2022/10/26 09:57:01;;;;;;;10.97;5.80;;;;;;;12.76;100.00;101307.47;7394679;19;20408;-49
2022/10/26 09:59:32;;;;;;;9.40;4.87;;;;;;;12.83;100.00;101306.91;7396831;19;20389;-49
2022/10/26 10:02:08;;;;;;;11.07;6.00;;;;;;;12.95;100.00;101316.91;7391956;19;20419;-46
2022/10/26 10:04:37;;;;;;;11.67;5.63;;;;;;;12.97;100.00;101319.53;7396411;19;20890;-48
2022/10/26 10:07:14;;;;;;;12.10;5.63;;;;;;;13.12;100.00;101313.22;7393335;19;20420;-49
2022/10/26 10:09:44;;;;;;;12.20;4.93;;;;;;;13.13;100.00;101322.75;7392261;19;20388;-49
2022/10/26 10:12:21;;;;;;;15.37;4.90;;;;;;;13.23;100.00;101322.31;7392304;19;20415;-46
2022/10/26 10:14:58;;;;;;;11.20;5.10;;;;;;;13.30;100.00;101318.25;7394980;19;20876;-51
2022/10/26 10:17:30;;;;;;;10.37;4.70;;;;;;;13.41;100.00;101319.56;7394674;19;20761;-49
2022/10/26 10:20:11;;;;;;;11.33;4.27;;;;;;;13.42;100.00;101320.41;7392548;19;20411;-50
2022/10/26 10:22:54;;;;;;;6.60;4.03;;;;;;;13.41;100.00;101316.97;7394625;19;20434;-46
2022/10/26 10:25:29;;;;;;;10.33;4.53;;;;;;;13.59;100.00;101321.13;7389537;19;20406;-51
2022/10/26 10:27:58;;;;;;;6.20;3.97;;;;;;;13.65;100.00;101321.38;7395136;19;21073;-47
2022/10/26 10:30:30;;;;;;;9.27;3.80;;;;;;;13.79;100.00;101319.25;7392345;19;20407;-46
2022/10/26 10:33:11;;;;;;;19.20;4.20;;;;;;;13.90;100.00;101315.38;7394888;19;20963;-50
2022/10/26 10:35:42;;;;;;;8.20;3.93;;;;;;;13.88;100.00;101311.84;7392602;19;20399;-49
2022/10/26 10:38:17;;;;;;;5.53;3.47;;;;;;;13.89;100.00;101326.56;7394876;19;20463;-50
2022/10/26 10:40:51;;;;;;;10.87;4.03;;;;;;;13.75;100.00;101323.47;7390321;19;20430;-48
2022/10/26 10:43:21;;;;;;;11.33;4.50;;;;;;;13.71;100.00;101331.97;7393914;19;20437;-46
2022/10/26 10:45:53;;;;;;;5.83;3.30;;;;;;;13.81;100.00;101328.00;7388949;19;20436;-47
2022/10/26 10:48:30;;;;;;;13.03;5.30;;;;;;;14.08;100.00;101324.66;7394143;19;20408;-49
2022/10/26 10:51:11;;;;;;;10.40;4.00;;;;;;;14.20;100.00;101325.94;7391846;19;20427;-45
2022/10/26 10:53:47;;;;;;;8.43;4.70;;;;;;;14.31;100.00;101319.44;7393089;19;20425;-47
2022/10/26 10:56:26;;;;;;;10.30;3.97;;;;;;;14.24;100.00;101317.41;7391335;19;20795;-46
2022/10/26 10:59:07;;;;;;;10.60;4.23;;;;;;;14.21;100.00;101317.31;7393735;19;20508;-46
2022/10/26 11:01:40;;;;;;;9.37;4.20;;;;;;;14.24;100.00;101317.41;7389039;19;20959;-50
2022/10/26 11:04:24;;;;;;;7.27;3.77;;;;;;;14.48;100.00;101316.50;7392123;19;20430;-47
2022/10/26 11:06:56;;;;;;;9.43;4.43;;;;;;;14.57;100.00;101314.25;7389952;19;20763;-47
2022/10/26 11:09:28;;;;;;;10.20;4.70;;;;;;;14.55;100.00;101316.78;7391528;19;20418;-48
2022/10/26 11:12:00;;;;;;;6.03;3.60;;;;;;;14.71;100.00;101320.78;7390357;19;20979;-46
2022/10/26 11:14:32;;;;;;;5.97;3.80;;;;;;;14.76;100.00;101314.91;7393925;19;20475;-47
2022/10/26 11:17:06;;;;;;;11.97;4.40;;;;;;;14.70;100.00;101328.53;7390156;19;20426;-47
2022/10/26 11:19:43;;;;;;;16.23;7.63;;;;;;;14.66;100.00;101327.53;7394568;19;20929;-47
2022/10/26 11:22:17;;;;;;;12.47;4.70;;;;;;;14.51;100.00;101325.28;7389599;19;20442;-49
2022/10/26 11:24:51;;;;;;;7.30;3.70;;;;;;;14.51;100.00;101322.69;7392711;19;20411;-47
2022/10/26 11:27:23;;;;;;;8.23;4.20;;;;;;;14.64;100.00;101321.41;7392249;19;20461;-46
2022/10/26 11:29:57;;;;;;;10.23;4.73;;;;;;;14.77;100.00;101324.47;7389850;19;20432;-49
2022/10/26 11:32:30;;;;;;;16.60;8.00;;;;;;;14.84;100.00;101321.22;7395374;19;21131;-48
2022/10/26 11:35:10;;;;;;;10.13;5.10;;;;;;;14.89;100.00;101314.47;7393354;19;20407;-47